Time;durP1;ratioP1;P1;durP2;ratioP2;P2;SDS_P1;SDS_P2;PMS_P1;PMS_P2;Temp;Humidity;BMP_temperature;BMP_pressure;BME280_temperature;BME280_humidity;BME280_pressure;Samples;Min_cycle;Max_cycle;Signal;HPM_P1;HPM_P2
2023/05/27 00:01:10;;;;;;;;;;;;;;;11.35;62.58;102883.94;4951497;28;19919;-63
2023/05/27 00:03:36;;;;;;;;;;;;;;;11.31;62.85;102879.84;4950908;28;19914;-62
2023/05/27 00:06:01;;;;;;;;;;;;;;;11.29;63.20;102884.47;4951471;28;19918;-62
2023/05/27 00:08:26;;;;;;;;;;;;;;;11.25;62.96;102890.13;4948268;28;19918;-62
2023/05/27 00:10:51;;;;;;;;;;;;;;;11.22;62.89;102883.25;4950960;28;19922;-62
2023/05/27 00:13:16;;;;;;;;;;;;;;;11.20;63.25;102881.69;4935210;29;20276;-62
2023/05/27 00:15:42;;;;;;;;;;;;;;;11.15;63.50;102879.41;4948862;28;19919;-62
2023/05/27 00:18:07;;;;;;;;;;;;;;;11.12;63.57;102869.03;4951779;28;19914;-62
2023/05/27 00:20:32;;;;;;;;;;;;;;;11.07;63.62;102872.06;4948728;28;19918;-62
2023/05/27 00:22:59;;;;;;;;;;;;;;;11.04;63.80;102866.97;4949346;28;20152;-62
2023/05/27 00:25:24;;;;;;;;;;;;;;;11.00;63.75;102870.88;4949922;28;20399;-62
2023/05/27 00:27:49;;;;;;;;;;;;;;;10.97;64.04;102873.75;4950768;28;20051;-62
2023/05/27 00:30:15;;;;;;;;;;;;;;;10.95;64.09;102872.19;4949376;28;19922;-62
2023/05/27 00:32:41;;;;;;;;;;;;;;;10.91;64.04;102870.75;4952153;28;19958;-62
2023/05/27 00:35:06;;;;;;;;;;;;;;;10.86;64.35;102866.63;4948141;28;19982;-62
2023/05/27 00:37:31;;;;;;;;;;;;;;;10.81;64.33;102868.81;4948865;28;19958;-62
2023/05/27 00:39:56;;;;;;;;;;;;;;;10.79;64.69;102869.91;4946370;28;20085;-63
2023/05/27 00:42:22;;;;;;;;;;;;;;;10.76;64.82;102873.66;4951839;28;19923;-62
2023/05/27 00:44:47;;;;;;;;;;;;;;;10.72;64.59;102871.38;4947669;28;19915;-62
2023/05/27 00:47:13;;;;;;;;;;;;;;;10.69;64.83;102867.13;4947379;28;19965;-62
2023/05/27 00:49:39;;;;;;;;;;;;;;;10.65;64.98;102863.03;4949113;28;19919;-62
2023/05/27 00:52:05;;;;;;;;;;;;;;;10.63;64.86;102864.13;4950080;28;19922;-62
2023/05/27 00:54:31;;;;;;;;;;;;;;;10.59;65.17;102865.31;4950247;28;19919;-62
2023/05/27 00:56:56;;;;;;;;;;;;;;;10.55;65.22;102860.25;4949266;28;20443;-62
2023/05/27 00:59:22;;;;;;;;;;;;;;;10.52;65.38;102847.22;4949308;28;19914;-62
2023/05/27 01:01:49;;;;;;;;;;;;;;;10.49;65.79;102846.63;4944591;28;20402;-62
2023/05/27 01:04:14;;;;;;;;;;;;;;;10.47;65.80;102851.22;4943800;28;19926;-62
2023/05/27 01:06:47;;;;;;;;;;;;;;;10.44;66.36;102849.63;4946775;28;19926;-62
2023/05/27 01:09:30;;;;;;;;;;;;;;;10.40;66.13;102844.66;4950452;28;19918;-62
2023/05/27 01:12:08;;;;;;;;;;;;;;;10.37;66.25;102848.41;4949624;28;20413;-62
2023/05/27 01:14:34;;;;;;;;;;;;;;;10.34;66.64;102845.16;4943967;28;20415;-62
2023/05/27 01:17:01;;;;;;;;;;;;;;;10.32;66.38;102839.13;4947806;28;19914;-63
2023/05/27 01:19:56;;;;;;;;;;;;;;;10.27;66.46;102843.94;4951233;28;20017;-62
2023/05/27 01:22:25;;;;;;;;;;;;;;;10.21;66.62;102848.78;4930735;28;19918;-62
2023/05/27 01:24:51;;;;;;;;;;;;;;;10.19;66.68;102848.03;4934100;29;20054;-62
2023/05/27 01:27:16;;;;;;;;;;;;;;;10.15;66.99;102843.91;4946660;28;20005;-62
2023/05/27 01:29:41;;;;;;;;;;;;;;;10.12;67.33;102840.63;4941000;28;20272;-62
2023/05/27 01:32:12;;;;;;;;;;;;;;;10.08;67.37;102836.50;4948186;28;19967;-62
2023/05/27 01:34:53;;;;;;;;;;;;;;;10.05;67.55;102834.09;4949098;28;19915;-63
2023/05/27 01:37:20;;;;;;;;;;;;;;;10.01;67.96;102836.16;4948566;28;19918;-62
2023/05/27 01:39:46;;;;;;;;;;;;;;;9.97;67.95;102833.84;4948866;28;19930;-62
2023/05/27 01:42:11;;;;;;;;;;;;;;;9.93;68.15;102835.91;4947926;28;19919;-62
2023/05/27 01:44:37;;;;;;;;;;;;;;;9.89;68.28;102834.44;4948017;28;20419;-62
2023/05/27 01:47:02;;;;;;;;;;;;;;;9.87;68.49;102833.72;4947032;28;20004;-62
2023/05/27 01:49:28;;;;;;;;;;;;;;;9.84;68.84;102829.50;4944794;28;19968;-62
2023/05/27 01:51:53;;;;;;;;;;;;;;;9.81;68.59;102829.69;4945404;28;19922;-62
2023/05/27 01:54:18;;;;;;;;;;;;;;;9.79;68.74;102834.28;4944073;28;19915;-62
2023/05/27 01:56:43;;;;;;;;;;;;;;;9.76;68.66;102831.03;4947818;28;20708;-62
2023/05/27 01:59:09;;;;;;;;;;;;;;;9.72;68.75;102830.41;4949429;28;19961;-62
2023/05/27 02:01:34;;;;;;;;;;;;;;;9.69;69.07;102838.59;4943466;28;19919;-62
2023/05/27 02:03:59;;;;;;;;;;;;;;;9.67;69.07;102834.38;4948203;28;19922;-63
2023/05/27 02:06:25;;;;;;;;;;;;;;;9.64;69.42;102835.47;4947620;28;19966;-62
2023/05/27 02:08:50;;;;;;;;;;;;;;;9.62;69.33;102838.22;4943413;28;20439;-62
2023/05/27 02:11:15;;;;;;;;;;;;;;;9.60;69.10;102842.81;4946130;28;19918;-62
2023/05/27 02:13:41;;;;;;;;;;;;;;;9.57;69.29;102840.38;4949344;28;19930;-63
2023/05/27 02:16:06;;;;;;;;;;;;;;;9.55;69.32;102837.00;4945210;28;20459;-62
2023/05/27 02:18:32;;;;;;;;;;;;;;;9.54;69.57;102840.63;4942891;28;19974;-62
2023/05/27 02:20:57;;;;;;;;;;;;;;;9.52;69.65;102842.50;4950226;28;19933;-62
2023/05/27 02:23:22;;;;;;;;;;;;;;;9.49;69.88;102832.13;4947527;28;20327;-62
2023/05/27 02:25:49;;;;;;;;;;;;;;;9.46;69.90;102829.72;4949516;28;19973;-62
2023/05/27 02:28:14;;;;;;;;;;;;;;;9.44;70.14;102833.44;4941046;28;19914;-62
2023/05/27 02:30:39;;;;;;;;;;;;;;;9.43;70.67;102831.75;4948793;28;19919;-62
2023/05/27 02:33:04;;;;;;;;;;;;;;;9.41;70.54;102825.72;4949959;28;20005;-62
2023/05/27 02:35:29;;;;;;;;;;;;;;;9.40;71.06;102829.34;4946305;28;20399;-62
2023/05/27 02:37:55;;;;;;;;;;;;;;;9.38;71.05;102832.09;4945698;28;19970;-62
2023/05/27 02:40:27;;;;;;;;;;;;;;;9.39;71.13;102830.28;4942314;28;20281;-62
2023/05/27 02:42:52;;;;;;;;;;;;;;;9.36;71.35;102834.03;4945446;28;20320;-62
2023/05/27 02:45:18;;;;;;;;;;;;;;;9.34;71.70;102833.28;4945969;28;20411;-61
2023/05/27 02:47:43;;;;;;;;;;;;;;;9.30;71.83;102835.31;4950399;28;19926;-62
2023/05/27 02:50:08;;;;;;;;;;;;;;;9.30;71.62;102842.44;4950152;28;19981;-62
2023/05/27 02:52:33;;;;;;;;;;;;;;;9.30;71.68;102845.94;4952347;28;19953;-62
2023/05/27 02:54:59;;;;;;;;;;;;;;;9.30;71.63;102842.44;4953984;28;20396;-62
2023/05/27 02:57:24;;;;;;;;;;;;;;;9.27;71.86;102848.81;4948572;28;19918;-61
2023/05/27 02:59:49;;;;;;;;;;;;;;;9.27;71.77;102847.97;4952421;28;19925;-62
2023/05/27 03:02:14;;;;;;;;;;;;;;;9.25;72.06;102848.09;4948097;28;19925;-62
2023/05/27 03:04:40;;;;;;;;;;;;;;;9.25;71.62;102856.03;4947523;28;19922;-62
2023/05/27 03:07:05;;;;;;;;;;;;;;;9.23;71.88;102854.44;4950046;28;20296;-62
2023/05/27 03:09:30;;;;;;;;;;;;;;;9.22;71.98;102858.88;4946036;28;19919;-62
2023/05/27 03:11:55;;;;;;;;;;;;;;;9.20;71.98;102849.34;4951554;28;20414;-62
2023/05/27 03:14:21;;;;;;;;;;;;;;;9.18;72.41;102854.75;4946681;28;19923;-62
2023/05/27 03:16:46;;;;;;;;;;;;;;;9.18;72.65;102853.91;4948507;28;19981;-62
2023/05/27 03:19:11;;;;;;;;;;;;;;;9.15;72.66;102851.50;4948704;28;20611;-62
2023/05/27 03:21:36;;;;;;;;;;;;;;;9.15;72.40;102848.84;4948582;28;19919;-62
2023/05/27 03:24:02;;;;;;;;;;;;;;;9.13;72.66;102848.13;4945210;28;20375;-62
2023/05/27 03:26:28;;;;;;;;;;;;;;;9.11;72.75;102842.09;4952147;28;20018;-61
2023/05/27 03:28:53;;;;;;;;;;;;;;;9.06;73.01;102841.56;4949997;28;20466;-62
2023/05/27 03:31:18;;;;;;;;;;;;;;;9.02;73.17;102840.13;4951882;28;19925;-62
2023/05/27 03:33:43;;;;;;;;;;;;;;;8.99;73.33;102831.44;4945166;28;19924;-62
2023/05/27 03:36:08;;;;;;;;;;;;;;;8.99;73.18;102844.69;4945967;28;19942;-62
2023/05/27 03:38:34;;;;;;;;;;;;;;;8.98;73.42;102836.84;4949631;28;19957;-62
2023/05/27 03:40:59;;;;;;;;;;;;;;;8.97;73.46;102830.69;4950183;28;20328;-61
2023/05/27 03:43:24;;;;;;;;;;;;;;;8.97;73.53;102828.03;4951195;28;19928;-62
2023/05/27 03:45:50;;;;;;;;;;;;;;;8.96;73.44;102829.00;4949253;28;19949;-62
2023/05/27 03:48:15;;;;;;;;;;;;;;;8.95;73.60;102824.63;4945696;28;19929;-62
2023/05/27 03:50:40;;;;;;;;;;;;;;;8.96;73.81;102826.34;4951983;28;19929;-61
2023/05/27 03:53:05;;;;;;;;;;;;;;;8.94;73.96;102824.75;4944931;28;20507;-62
2023/05/27 03:55:30;;;;;;;;;;;;;;;8.91;74.00;102820.50;4948529;28;20380;-61
2023/05/27 03:57:55;;;;;;;;;;;;;;;8.89;74.16;102824.22;4947830;28;19926;-62
2023/05/27 04:00:21;;;;;;;;;;;;;;;8.87;73.97;102813.75;4952940;28;19922;-62
2023/05/27 04:02:47;;;;;;;;;;;;;;;8.85;73.90;102812.16;4952041;28;19937;-62
2023/05/27 04:05:12;;;;;;;;;;;;;;;8.84;74.15;102807.84;4948195;28;20057;-61
2023/05/27 04:07:37;;;;;;;;;;;;;;;8.82;74.30;102805.28;4942937;28;19977;-62
2023/05/27 04:10:02;;;;;;;;;;;;;;;8.82;74.86;102810.59;4935681;29;19915;-62
2023/05/27 04:12:28;;;;;;;;;;;;;;;8.83;74.83;102814.94;4950721;28;20311;-62
2023/05/27 04:14:53;;;;;;;;;;;;;;;8.81;74.74;102818.66;4952905;28;19922;-62
2023/05/27 04:17:18;;;;;;;;;;;;;;;8.79;74.78;102810.81;4948591;28;20595;-62
2023/05/27 04:19:43;;;;;;;;;;;;;;;8.78;74.97;102813.56;4951316;28;20005;-62
2023/05/27 04:22:09;;;;;;;;;;;;;;;8.78;75.08;102809.13;4951013;28;20311;-62
2023/05/27 04:24:34;;;;;;;;;;;;;;;8.81;75.47;102808.91;4950279;28;20716;-62
2023/05/27 04:26:59;;;;;;;;;;;;;;;8.83;75.53;102804.34;4944798;28;19938;-62
2023/05/27 04:29:25;;;;;;;;;;;;;;;8.85;75.59;102804.22;4951913;28;19945;-61
2023/05/27 04:31:50;;;;;;;;;;;;;;;8.87;75.75;102800.50;4945452;28;19941;-62
2023/05/27 04:34:15;;;;;;;;;;;;;;;8.89;75.82;102806.53;4946091;28;19922;-61
2023/05/27 04:36:41;;;;;;;;;;;;;;;8.90;75.87;102794.13;4943007;28;19922;-62
2023/05/27 04:39:07;;;;;;;;;;;;;;;8.92;76.23;102802.81;4948253;28;20427;-61
2023/05/27 04:41:32;;;;;;;;;;;;;;;8.93;76.33;102797.41;4941293;28;20308;-61
2023/05/27 04:44:00;;;;;;;;;;;;;;;8.95;76.17;102797.28;4947022;28;19922;-61
2023/05/27 04:46:26;;;;;;;;;;;;;;;8.96;76.33;102794.56;4947730;28;20024;-61
2023/05/27 04:48:52;;;;;;;;;;;;;;;9.00;76.10;102798.66;4951894;28;20187;-62
2023/05/27 04:51:18;;;;;;;;;;;;;;;9.03;76.41;102788.81;4948780;28;19966;-62
2023/05/27 04:53:44;;;;;;;;;;;;;;;9.06;76.43;102786.75;4950081;28;19923;-62
2023/05/27 04:56:10;;;;;;;;;;;;;;;9.11;76.43;102789.91;4947426;28;20392;-62
2023/05/27 04:58:36;;;;;;;;;;;;;;;9.16;76.55;102802.81;4949589;28;20522;-62
2023/05/27 05:01:01;;;;;;;;;;;;;;;9.19;76.92;102789.34;4943093;28;19922;-62
2023/05/27 05:03:36;;;;;;;;;;;;;;;9.23;76.83;102798.75;4947325;28;19914;-62
2023/05/27 05:06:02;;;;;;;;;;;;;;;9.27;77.15;102794.94;4943851;28;19923;-62
2023/05/27 05:08:28;;;;;;;;;;;;;;;9.32;77.20;102787.50;4946078;28;19954;-62
2023/05/27 05:10:53;;;;;;;;;;;;;;;9.37;77.06;102789.78;4945424;28;19954;-62
2023/05/27 05:13:18;;;;;;;;;;;;;;;9.41;76.78;102778.84;4946426;28;19918;-62
2023/05/27 05:15:43;;;;;;;;;;;;;;;9.45;76.86;102782.09;4947698;28;20346;-62
2023/05/27 05:18:10;;;;;;;;;;;;;;;9.50;76.96;102786.09;4943509;28;19923;-61
2023/05/27 05:20:35;;;;;;;;;;;;;;;9.54;76.94;102787.56;4951140;28;20486;-62
2023/05/27 05:23:00;;;;;;;;;;;;;;;9.58;76.83;102786.38;4949351;28;20013;-62
2023/05/27 05:25:25;;;;;;;;;;;;;;;9.63;77.09;102786.88;4947360;28;19927;-62
2023/05/27 05:27:51;;;;;;;;;;;;;;;9.71;76.77;102790.72;4942625;28;20303;-62
2023/05/27 05:30:16;;;;;;;;;;;;;;;9.76;76.82;102793.88;4948745;28;19957;-61
2023/05/27 05:32:41;;;;;;;;;;;;;;;9.81;76.78;102789.91;4950030;28;20010;-62
2023/05/27 05:35:06;;;;;;;;;;;;;;;9.86;76.93;102787.75;4947759;28;20053;-61
2023/05/27 05:37:32;;;;;;;;;;;;;;;9.91;76.76;102779.44;4949817;28;19918;-62
2023/05/27 05:39:57;;;;;;;;;;;;;;;9.98;76.50;102778.00;4949496;28;20082;-62
2023/05/27 05:42:24;;;;;;;;;;;;;;;10.05;77.02;102778.34;4947831;28;19918;-62
2023/05/27 05:44:49;;;;;;;;;;;;;;;10.10;76.75;102781.50;4947015;28;19926;-62
2023/05/27 05:47:14;;;;;;;;;;;;;;;10.16;76.77;102775.72;4944468;28;19933;-62
2023/05/27 05:49:40;;;;;;;;;;;;;;;10.19;76.44;102767.53;4943550;28;19965;-61
2023/05/27 05:52:05;;;;;;;;;;;;;;;10.19;76.14;102760.41;4950166;28;19934;-61
2023/05/27 05:54:30;;;;;;;;;;;;;;;10.23;76.03;102761.03;4944596;28;19921;-62
2023/05/27 05:56:55;;;;;;;;;;;;;;;10.29;76.15;102765.84;4942853;28;20263;-62
2023/05/27 05:59:20;;;;;;;;;;;;;;;10.36;76.43;102766.19;4944807;28;20281;-62
2023/05/27 06:01:46;;;;;;;;;;;;;;;10.40;76.10;102755.22;4945309;28;19933;-62
2023/05/27 06:04:11;;;;;;;;;;;;;;;10.45;76.32;102765.50;4949931;28;19922;-61
2023/05/27 06:06:36;;;;;;;;;;;;;;;10.52;76.46;102761.38;4943570;28;20061;-62
2023/05/27 06:09:02;;;;;;;;;;;;;;;10.58;76.13;102762.69;4946590;28;19926;-62
2023/05/27 06:11:27;;;;;;;;;;;;;;;10.62;75.62;102761.47;4949868;28;19918;-62
2023/05/27 06:13:52;;;;;;;;;;;;;;;10.66;75.56;102763.75;4947247;28;19922;-63
2023/05/27 06:16:17;;;;;;;;;;;;;;;10.70;75.54;102765.22;4947964;28;19919;-61
2023/05/27 06:18:45;;;;;;;;;;;;;;;10.71;75.15;102763.41;4942653;28;19969;-62
2023/05/27 06:21:11;;;;;;;;;;;;;;;10.74;75.32;102768.47;4950382;28;19915;-61
2023/05/27 06:23:36;;;;;;;;;;;;;;;10.79;75.17;102761.78;4940445;28;19974;-62
2023/05/27 06:26:02;;;;;;;;;;;;;;;10.86;75.02;102760.31;4944685;28;20415;-62
2023/05/27 06:28:27;;;;;;;;;;;;;;;10.92;74.52;102755.47;4944960;28;19923;-62
2023/05/27 06:30:52;;;;;;;;;;;;;;;10.93;74.56;102763.31;4949932;28;19919;-62
2023/05/27 06:33:17;;;;;;;;;;;;;;;11.01;75.12;102750.25;4942841;28;19956;-62
2023/05/27 06:35:43;;;;;;;;;;;;;;;11.09;75.03;102746.97;4949608;28;19918;-62
2023/05/27 06:38:09;;;;;;;;;;;;;;;11.15;74.61;102747.28;4946597;28;20293;-62
2023/05/27 06:40:34;;;;;;;;;;;;;;;11.24;74.96;102755.47;4948703;28;20471;-62
2023/05/27 06:42:59;;;;;;;;;;;;;;;11.31;74.77;102749.53;4945754;28;19918;-62
2023/05/27 06:45:24;;;;;;;;;;;;;;;11.37;73.91;102751.66;4942883;28;19915;-62
2023/05/27 06:47:50;;;;;;;;;;;;;;;11.44;73.98;102747.50;4942904;28;19938;-62
2023/05/27 06:50:15;;;;;;;;;;;;;;;11.49;73.88;102742.63;4949066;28;19923;-62
2023/05/27 06:52:40;;;;;;;;;;;;;;;11.58;73.95;102734.88;4944591;28;19921;-61
2023/05/27 06:55:05;;;;;;;;;;;;;;;11.64;73.83;102740.50;4945109;28;19930;-62
2023/05/27 06:57:31;;;;;;;;;;;;;;;11.71;73.50;102736.34;4947715;28;20402;-62
2023/05/27 06:59:56;;;;;;;;;;;;;;;11.78;73.49;102731.34;4949509;28;19953;-62
2023/05/27 07:02:21;;;;;;;;;;;;;;;11.83;72.82;102734.47;4943620;28;19989;-62
2023/05/27 07:04:46;;;;;;;;;;;;;;;11.87;73.05;102732.41;4946066;28;19919;-62
2023/05/27 07:07:11;;;;;;;;;;;;;;;11.88;72.55;102724.28;4949240;28;19923;-62
2023/05/27 07:09:37;;;;;;;;;;;;;;;11.96;72.98;102723.59;4943021;28;19922;-62
2023/05/27 07:12:02;;;;;;;;;;;;;;;12.06;73.16;102722.66;4948382;28;19944;-62
2023/05/27 07:14:27;;;;;;;;;;;;;;;12.16;72.87;102721.88;4944292;28;19941;-62
2023/05/27 07:16:52;;;;;;;;;;;;;;;12.22;72.88;102716.00;4945736;28;19976;-63
2023/05/27 07:19:17;;;;;;;;;;;;;;;12.30;72.71;102718.81;4949051;28;19926;-62
2023/05/27 07:21:43;;;;;;;;;;;;;;;12.36;72.46;102719.13;4944228;28;19922;-62
2023/05/27 07:24:08;;;;;;;;;;;;;;;12.40;71.98;102719.69;4946595;28;19918;-62
2023/05/27 07:26:33;;;;;;;;;;;;;;;12.40;71.39;102725.84;4950370;28;20407;-62
2023/05/27 07:28:59;;;;;;;;;;;;;;;12.40;71.34;102717.00;4951729;28;19925;-61
2023/05/27 07:31:25;;;;;;;;;;;;;;;12.46;72.05;102713.81;4949689;28;20325;-61
2023/05/27 07:33:50;;;;;;;;;;;;;;;12.53;71.29;102704.28;4944225;28;19915;-61
2023/05/27 07:36:15;;;;;;;;;;;;;;;12.61;71.57;102707.09;4951493;28;19922;-61
2023/05/27 07:38:41;;;;;;;;;;;;;;;12.70;71.25;102706.25;4940028;28;19926;-61
2023/05/27 07:41:06;;;;;;;;;;;;;;;12.81;71.22;102709.81;4952843;28;20012;-62
2023/05/27 07:43:31;;;;;;;;;;;;;;;12.88;70.98;102711.75;4951375;28;19915;-61
2023/05/27 07:45:56;;;;;;;;;;;;;;;12.96;70.84;102706.56;4951724;28;20283;-61
2023/05/27 07:48:21;;;;;;;;;;;;;;;13.05;70.75;102696.91;4944948;28;19923;-61
2023/05/27 07:50:46;;;;;;;;;;;;;;;13.14;70.38;102693.38;4950920;28;19957;-61
2023/05/27 07:53:12;;;;;;;;;;;;;;;13.25;70.01;102687.06;4950740;28;19923;-61
2023/05/27 07:55:37;;;;;;;;;;;;;;;13.35;70.05;102689.72;4951351;28;19915;-61
2023/05/27 07:58:02;;;;;;;;;;;;;;;13.42;69.54;102686.34;4946715;28;20305;-61
2023/05/27 08:00:27;;;;;;;;;;;;;;;13.45;69.31;102683.38;4946059;28;19914;-61
2023/05/27 08:02:52;;;;;;;;;;;;;;;13.48;68.69;102684.91;4945659;28;20271;-61
2023/05/27 08:05:17;;;;;;;;;;;;;;;13.57;68.98;102682.22;4952427;28;19918;-61
2023/05/27 08:07:43;;;;;;;;;;;;;;;13.61;68.58;102683.63;4949408;28;19957;-61
2023/05/27 08:10:08;;;;;;;;;;;;;;;13.69;68.67;102687.38;4952977;28;19914;-61
2023/05/27 08:12:33;;;;;;;;;;;;;;;13.82;68.48;102672.72;4946545;28;19919;-61
2023/05/27 08:14:59;;;;;;;;;;;;;;;13.93;68.18;102669.88;4945290;28;19970;-61
2023/05/27 08:17:24;;;;;;;;;;;;;;;14.03;68.13;102668.97;4948112;28;19922;-61
2023/05/27 08:19:49;;;;;;;;;;;;;;;14.13;67.95;102664.41;4952786;28;19914;-61
2023/05/27 08:22:14;;;;;;;;;;;;;;;14.26;67.72;102675.59;4950338;28;20013;-61
2023/05/27 08:24:39;;;;;;;;;;;;;;;14.35;67.05;102664.00;4951215;28;19946;-61
2023/05/27 08:27:05;;;;;;;;;;;;;;;14.41;67.22;102647.34;4948287;28;19930;-61
2023/05/27 08:29:32;;;;;;;;;;;;;;;14.55;67.04;102654.88;4945496;28;19969;-61
2023/05/27 08:31:58;;;;;;;;;;;;;;;14.66;66.72;102652.97;4944773;28;19966;-61
2023/05/27 08:34:23;;;;;;;;;;;;;;;14.68;66.44;102645.63;4944667;28;19956;-61
2023/05/27 08:36:48;;;;;;;;;;;;;;;14.71;65.88;102648.84;4946484;28;19919;-62
2023/05/27 08:39:14;;;;;;;;;;;;;;;14.76;65.57;102643.91;4951092;28;19918;-61
2023/05/27 08:41:39;;;;;;;;;;;;;;;14.79;65.39;102634.72;4946435;28;20491;-61
2023/05/27 08:44:04;;;;;;;;;;;;;;;14.91;65.46;102635.31;4949058;28;20351;-61
2023/05/27 08:46:31;;;;;;;;;;;;;;;15.01;65.12;102646.75;4945714;28;19933;-61
2023/05/27 08:48:56;;;;;;;;;;;;;;;15.08;64.97;102629.94;4945845;28;19922;-61
2023/05/27 08:51:22;;;;;;;;;;;;;;;15.23;64.55;102632.88;4945340;28;19939;-61
2023/05/27 08:53:50;;;;;;;;;;;;;;;15.40;64.07;102626.63;4949002;28;20302;-62
2023/05/27 08:56:18;;;;;;;;;;;;;;;15.45;64.37;102621.63;4950606;28;19961;-62
2023/05/27 08:58:44;;;;;;;;;;;;;;;15.55;63.85;102621.50;4951875;28;19914;-62
2023/05/27 09:01:09;;;;;;;;;;;;;;;15.68;62.80;102616.59;4949449;28;19914;-61
2023/05/27 09:03:34;;;;;;;;;;;;;;;15.80;62.30;102619.81;4950095;28;19934;-62
2023/05/27 09:06:03;;;;;;;;;;;;;;;15.88;62.35;102610.97;4945577;28;19930;-62
2023/05/27 09:08:28;;;;;;;;;;;;;;;16.05;62.22;102618.06;4944074;28;20008;-61
2023/05/27 09:10:53;;;;;;;;;;;;;;;16.24;61.56;102612.44;4950547;28;19922;-61
2023/05/27 09:13:25;;;;;;;;;;;;;;;16.36;61.23;102615.63;4947822;28;19919;-61
2023/05/27 09:15:56;;;;;;;;;;;;;;;16.52;60.73;102612.97;4946813;28;19918;-61
2023/05/27 09:18:25;;;;;;;;;;;;;;;16.66;60.73;102600.75;4943776;28;20495;-61
2023/05/27 09:20:53;;;;;;;;;;;;;;;16.81;60.28;102596.41;4950249;28;19914;-62
2023/05/27 09:23:18;;;;;;;;;;;;;;;16.89;59.34;102601.75;4944397;28;20388;-62
2023/05/27 09:25:43;;;;;;;;;;;;;;;16.94;58.56;102593.19;4949614;28;19921;-61
2023/05/27 09:28:09;;;;;;;;;;;;;;;16.95;58.65;102595.72;4943359;28;19918;-61
2023/05/27 09:30:35;;;;;;;;;;;;;;;16.96;58.35;102589.34;4949978;28;19922;-61
2023/05/27 09:33:02;;;;;;;;;;;;;;;16.97;58.56;102587.47;4950529;28;19922;-62
2023/05/27 09:35:27;;;;;;;;;;;;;;;17.04;58.36;102591.16;4947328;28;19914;-61
2023/05/27 09:37:53;;;;;;;;;;;;;;;17.12;58.45;102590.34;4944220;28;19965;-61
2023/05/27 09:40:18;;;;;;;;;;;;;;;17.18;58.27;102586.94;4937142;28;20001;-61
2023/05/27 09:42:47;;;;;;;;;;;;;;;17.25;58.16;102588.78;4941627;28;19962;-61
2023/05/27 09:45:12;;;;;;;;;;;;;;;17.28;57.51;102584.91;4949716;28;19925;-61
2023/05/27 09:47:39;;;;;;;;;;;;;;;17.25;57.39;102580.72;4944715;28;20340;-61
2023/05/27 09:50:06;;;;;;;;;;;;;;;17.24;57.30;102580.88;4945676;28;19945;-61
2023/05/27 09:52:31;;;;;;;;;;;;;;;17.29;57.34;102571.31;4943171;28;19921;-61
2023/05/27 09:54:57;;;;;;;;;;;;;;;17.34;57.40;102568.09;4941831;28;20009;-61
2023/05/27 09:57:22;;;;;;;;;;;;;;;17.32;57.19;102562.91;4946095;28;19915;-61
2023/05/27 09:59:48;;;;;;;;;;;;;;;17.28;57.07;102569.63;4948103;28;19925;-61
2023/05/27 10:02:16;;;;;;;;;;;;;;;17.26;56.87;102560.06;4940638;28;19915;-61
2023/05/27 10:04:43;;;;;;;;;;;;;;;17.27;56.79;102559.91;4945188;28;19950;-62
2023/05/27 10:07:09;;;;;;;;;;;;;;;17.38;56.86;102566.75;4948253;28;19983;-62
2023/05/27 10:09:34;;;;;;;;;;;;;;;17.53;56.81;102559.63;4950094;28;20333;-61
2023/05/27 10:11:59;;;;;;;;;;;;;;;17.69;56.70;102557.94;4947119;28;20013;-61
2023/05/27 10:14:25;;;;;;;;;;;;;;;17.91;55.51;102557.13;4946136;28;19925;-61
2023/05/27 10:16:53;;;;;;;;;;;;;;;18.15;55.53;102548.06;4943736;28;19918;-61
2023/05/27 10:19:18;;;;;;;;;;;;;;;18.31;55.84;102557.88;4951180;28;19961;-62
2023/05/27 10:21:45;;;;;;;;;;;;;;;18.43;54.71;102556.44;4942728;28;20364;-61
2023/05/27 10:24:11;;;;;;;;;;;;;;;18.58;53.97;102551.94;4947489;28;19918;-62
2023/05/27 10:26:38;;;;;;;;;;;;;;;18.80;54.84;102545.72;4949637;28;19985;-61
2023/05/27 10:29:11;;;;;;;;;;;;;;;18.93;53.80;102544.25;4948580;28;19919;-62
2023/05/27 10:31:43;;;;;;;;;;;;;;;19.00;53.38;102545.19;4948492;28;20008;-61
2023/05/27 10:34:09;;;;;;;;;;;;;;;19.10;52.89;102541.22;4942881;28;20287;-62
2023/05/27 10:36:36;;;;;;;;;;;;;;;19.25;53.03;102534.97;4949764;28;20384;-61
2023/05/27 10:39:05;;;;;;;;;;;;;;;19.40;52.33;102538.50;4950056;28;19919;-61
2023/05/27 10:41:40;;;;;;;;;;;;;;;19.69;51.46;102530.41;4948475;28;20000;-62
2023/05/27 10:44:06;;;;;;;;;;;;;;;19.94;50.33;102536.25;4944292;28;19926;-62
2023/05/27 10:46:38;;;;;;;;;;;;;;;19.98;50.60;102524.09;4945863;28;19918;-61
2023/05/27 10:49:22;;;;;;;;;;;;;;;19.95;50.00;102518.22;4929394;29;19926;-62
2023/05/27 10:51:47;;;;;;;;;;;;;;;20.06;49.31;102521.25;4945242;28;19922;-61
2023/05/27 10:54:13;;;;;;;;;;;;;;;20.25;48.81;102517.09;4947366;28;20618;-61
2023/05/27 10:56:47;;;;;;;;;;;;;;;20.46;48.45;102515.41;4949687;28;19970;-61
2023/05/27 10:59:17;;;;;;;;;;;;;;;20.67;47.50;102507.28;4946548;28;19922;-61
2023/05/27 11:01:42;;;;;;;;;;;;;;;20.82;47.53;102502.63;4950987;28;19937;-61
2023/05/27 11:04:08;;;;;;;;;;;;;;;20.78;47.18;102493.22;4951351;28;20379;-61
2023/05/27 11:06:33;;;;;;;;;;;;;;;20.68;47.62;102495.44;4953177;28;19988;-61
2023/05/27 11:08:58;;;;;;;;;;;;;;;20.58;47.03;102486.88;4951572;28;19925;-62
2023/05/27 11:11:23;;;;;;;;;;;;;;;20.56;46.18;102484.38;4951810;28;19957;-62
2023/05/27 11:13:49;;;;;;;;;;;;;;;20.68;46.85;102484.63;4944543;28;19934;-61
2023/05/27 11:16:15;;;;;;;;;;;;;;;20.70;46.57;102488.81;4947263;28;19919;-62
2023/05/27 11:18:45;;;;;;;;;;;;;;;20.78;47.25;102481.59;4946387;28;19937;-61
2023/05/27 11:21:11;;;;;;;;;;;;;;;20.85;46.86;102471.69;4950818;28;19914;-62
2023/05/27 11:23:37;;;;;;;;;;;;;;;20.84;46.12;102470.84;4948968;28;19930;-63
2023/05/27 11:26:03;;;;;;;;;;;;;;;20.78;47.33;102471.63;4947519;28;19925;-61
2023/05/27 11:28:28;;;;;;;;;;;;;;;20.67;47.23;102464.91;4945154;28;19918;-62
2023/05/27 11:31:03;;;;;;;;;;;;;;;20.66;47.12;102470.50;4947225;28;19926;-62
2023/05/27 11:33:32;;;;;;;;;;;;;;;20.69;47.43;102457.44;4952148;28;19958;-62
2023/05/27 11:36:06;;;;;;;;;;;;;;;20.75;46.71;102446.88;4947372;28;19933;-61
2023/05/27 11:38:38;;;;;;;;;;;;;;;20.78;46.51;102439.22;4949735;28;20375;-62
2023/05/27 11:41:07;;;;;;;;;;;;;;;20.93;47.35;102445.34;4951892;28;19919;-62
2023/05/27 11:43:32;;;;;;;;;;;;;;;21.05;47.06;102440.19;4950920;28;20410;-62
2023/05/27 11:46:04;;;;;;;;;;;;;;;21.09;46.45;102436.03;4945893;28;19919;-61
2023/05/27 11:48:29;;;;;;;;;;;;;;;21.10;46.08;102434.16;4948511;28;19922;-61
2023/05/27 11:50:54;;;;;;;;;;;;;;;21.18;46.00;102434.03;4945113;28;20528;-62
2023/05/27 11:53:20;;;;;;;;;;;;;;;21.29;45.74;102425.34;4945577;28;19927;-62
2023/05/27 11:55:45;;;;;;;;;;;;;;;21.41;45.76;102428.31;4947385;28;20501;-62
2023/05/27 11:58:10;;;;;;;;;;;;;;;21.45;45.17;102424.16;4950725;28;19926;-62
2023/05/27 12:00:35;;;;;;;;;;;;;;;21.50;44.53;102425.22;4949045;28;20364;-62
2023/05/27 12:03:00;;;;;;;;;;;;;;;21.50;43.97;102414.41;4950022;28;19934;-62
2023/05/27 12:05:26;;;;;;;;;;;;;;;21.55;44.04;102403.78;4945849;28;19926;-62
2023/05/27 12:07:51;;;;;;;;;;;;;;;21.62;43.70;102403.81;4944337;28;19962;-61
2023/05/27 12:10:16;;;;;;;;;;;;;;;21.61;42.31;102411.06;4947983;28;20663;-62
2023/05/27 12:12:44;;;;;;;;;;;;;;;21.60;42.54;102404.00;4949275;28;19927;-62
2023/05/27 12:15:09;;;;;;;;;;;;;;;21.60;42.73;102397.78;4949930;28;19937;-61
2023/05/27 12:17:34;;;;;;;;;;;;;;;21.53;42.17;102391.53;4949158;28;19980;-62
2023/05/27 12:19:59;;;;;;;;;;;;;;;21.48;41.28;102397.56;4946066;28;19918;-62
2023/05/27 12:22:25;;;;;;;;;;;;;;;21.50;41.76;102394.66;4950854;28;20560;-61
2023/05/27 12:24:51;;;;;;;;;;;;;;;21.51;41.38;102386.31;4950433;28;19926;-62
2023/05/27 12:27:17;;;;;;;;;;;;;;;21.57;41.68;102377.38;4948122;28;19927;-61
2023/05/27 12:29:42;;;;;;;;;;;;;;;21.63;41.96;102378.44;4943240;28;19925;-62
2023/05/27 12:32:07;;;;;;;;;;;;;;;21.74;41.39;102372.44;4951711;28;19964;-62
2023/05/27 12:34:32;;;;;;;;;;;;;;;21.90;41.57;102376.56;4946353;28;19918;-62